Time;durP1;ratioP1;P1;durP2;ratioP2;P2;SDS_P1;SDS_P2;PMS_P1;PMS_P2;Temp;Humidity;BMP_temperature;BMP_pressure;BME280_temperature;BME280_humidity;BME280_pressure;Samples;Min_cycle;Max_cycle;Signal;HPM_P1;HPM_P2
2021/12/17 00:07:00;;;;;;;44.63;30.65;;;;;;;7.15;90.82;103888.75;5092409;28;20517;-79
2021/12/17 00:09:25;;;;;;;37.50;29.30;;;;;;;7.12;91.25;103880.78;5092426;28;20028;-79
2021/12/17 00:11:51;;;;;;;39.15;30.15;;;;;;;7.20;91.08;103893.16;5092167;28;20528;-78
2021/12/17 00:14:25;;;;;;;39.60;28.80;;;;;;;7.22;91.23;103879.94;5092137;28;20126;-81
2021/12/17 00:16:51;;;;;;;43.22;29.27;;;;;;;7.11;90.90;103869.31;5092091;28;20028;-80
2021/12/17 00:49:00;;;;;;;41.35;31.70;;;;;;;7.17;92.33;103848.16;5092565;28;20043;-82
2021/12/17 00:53:56;;;;;;;39.22;29.45;;;;;;;7.36;91.96;103874.63;5091809;28;20039;-81
2021/12/17 00:56:21;;;;;;;37.65;30.80;;;;;;;7.25;92.21;103856.97;5091035;28;20467;-79
2021/12/17 00:58:47;;;;;;;41.08;31.20;;;;;;;7.22;92.23;103849.03;5092247;28;20020;-79
2021/12/17 01:01:12;;;;;;;40.88;29.25;;;;;;;7.37;92.33;103869.31;5091466;28;20618;-80
2021/12/17 01:03:38;;;;;;;38.25;28.77;;;;;;;7.30;92.66;103869.34;5092179;28;20027;-80
2021/12/17 01:06:04;;;;;;;39.67;30.00;;;;;;;7.38;92.29;103872.84;5090744;28;20095;-79
2021/12/17 01:08:29;;;;;;;41.47;30.30;;;;;;;7.34;92.71;103863.16;5073233;28;20117;-81
2021/12/17 01:10:56;;;;;;;38.47;30.40;;;;;;;7.34;92.55;103860.50;5091471;28;20456;-81
2021/12/17 01:13:22;;;;;;;37.55;29.42;;;;;;;7.27;92.47;103843.75;5092175;28;20020;-79
2021/12/17 01:15:49;;;;;;;37.75;30.38;;;;;;;7.33;92.27;103851.69;5072760;28;20176;-79
2021/12/17 01:18:18;;;;;;;36.95;29.55;;;;;;;6.97;92.46;103782.03;5092345;28;20020;-83
2021/12/17 01:38:08;;;;;;;39.50;30.33;;;;;;;7.45;92.66;103864.03;5053314;28;20060;-78
2021/12/17 01:40:56;;;;;;;40.53;29.92;;;;;;;7.41;92.94;103854.31;5033234;28;20042;-80
2021/12/17 01:43:15;;;;;;;40.63;31.80;;;;;;;7.43;92.76;103853.44;5052800;28;20029;-80
2021/12/17 01:45:43;;;;;;;39.22;30.63;;;;;;;7.41;93.18;103857.88;5052895;28;20037;-80
2021/12/17 01:48:14;;;;;;;37.65;29.83;;;;;;;7.43;93.36;103852.56;5051965;28;20040;-80
2021/12/17 02:01:39;;;;;;;40.15;29.83;;;;;;;7.39;93.35;103833.16;5082892;28;20142;-80
2021/12/17 02:04:05;;;;;;;40.63;31.42;;;;;;;7.39;93.37;103843.75;5094933;28;20024;-81
2021/12/17 02:06:34;;;;;;;39.78;31.33;;;;;;;7.40;93.74;103845.47;5094509;28;20104;-80
2021/12/17 02:09:00;;;;;;;39.43;30.77;;;;;;;7.33;93.54;103830.50;5093376;28;20055;-79
2021/12/17 02:12:05;;;;;;;44.17;33.95;;;;;;;7.33;93.91;103832.28;5094381;28;20387;-80
2021/12/17 02:20:09;;;;;;;40.13;30.67;;;;;;;7.38;93.40;103828.75;5094051;28;20063;-79
2021/12/17 02:33:03;;;;;;;43.78;34.10;;;;;;;7.40;93.62;103824.31;5094381;28;20028;-79
2021/12/17 02:35:42;;;;;;;48.70;34.03;;;;;;;7.51;93.95;103842.84;5093916;28;20093;-81
2021/12/17 02:38:10;;;;;;;46.10;34.28;;;;;;;7.60;93.57;103856.06;5094178;28;20024;-82
2021/12/17 02:45:45;;;;;;;50.00;33.95;;;;;;;7.58;93.78;103857.81;5094568;28;20024;-79
2021/12/17 02:48:17;;;;;;;44.65;33.67;;;;;;;7.60;93.82;103866.66;5092293;28;20485;-81
2021/12/17 02:50:49;;;;;;;44.95;32.83;;;;;;;7.62;93.98;103858.72;5093754;28;20028;-81
2021/12/17 02:53:16;;;;;;;50.88;33.75;;;;;;;7.40;93.94;103820.78;5091774;28;20077;-80
2021/12/17 02:55:48;;;;;;;51.28;35.45;;;;;;;7.59;94.37;103856.94;5093983;28;20483;-79
2021/12/17 02:58:14;;;;;;;55.75;37.33;;;;;;;7.34;94.32;103808.44;5093381;28;20031;-80
2021/12/17 03:00:42;;;;;;;52.50;36.05;;;;;;;7.63;94.35;103858.69;5093543;28;20020;-80
2021/12/17 03:03:09;;;;;;;53.92;36.35;;;;;;;7.59;94.27;103856.94;5093321;28;20111;-80
2021/12/17 03:05:37;;;;;;;60.00;39.03;;;;;;;7.40;94.40;103824.31;5093746;28;20111;-81
2021/12/17 03:08:05;;;;;;;56.33;37.38;;;;;;;7.53;94.69;103837.50;5091977;28;20032;-79
2021/12/17 03:10:31;;;;;;;78.95;45.40;;;;;;;7.68;94.64;103853.41;5093694;28;20045;-79
2021/12/17 03:13:00;;;;;;;76.45;44.22;;;;;;;7.40;94.53;103812.84;5092423;28;20032;-80
2021/12/17 03:25:49;;;;;;;80.30;44.45;;;;;;;7.60;94.32;103836.63;5093716;28;20535;-81
2021/12/17 03:28:15;;;;;;;74.80;43.65;;;;;;;7.72;94.57;103866.63;5091916;28;20024;-78
2021/12/17 03:30:40;;;;;;;85.30;46.88;;;;;;;7.77;94.96;103873.69;5084498;28;20032;-78
2021/12/17 03:33:06;;;;;;;81.40;46.00;;;;;;;7.62;94.61;103850.75;5077957;28;20063;-81
2021/12/17 03:35:31;;;;;;;83.53;45.70;;;;;;;7.51;94.68;103829.59;5093437;28;20028;-81
2021/12/17 03:37:57;;;;;;;93.18;48.00;;;;;;;7.64;95.04;103846.31;5091535;28;20512;-81
2021/12/17 03:40:22;;;;;;;91.85;45.55;;;;;;;7.66;94.70;103850.75;5092686;28;20058;-83
2021/12/17 03:42:50;;;;;;;94.05;48.22;;;;;;;7.73;95.03;103865.75;5091979;28;20055;-80
2021/12/17 03:45:17;;;;;;;94.93;46.75;;;;;;;7.65;95.06;103843.69;5092638;28;20019;-82
2021/12/17 03:47:43;;;;;;;102.05;49.10;;;;;;;7.62;95.21;103841.03;5092234;28;20546;-80
2021/12/17 03:50:09;;;;;;;97.57;45.70;;;;;;;7.65;95.10;103848.09;5092745;28;20119;-79
2021/12/17 03:52:34;;;;;;;102.22;47.90;;;;;;;7.62;95.22;103835.75;5090289;28;20028;-81
2021/12/17 03:55:00;;;;;;;106.43;47.35;;;;;;;7.79;95.25;103862.16;5093001;28;20501;-80
2021/12/17 03:57:25;;;;;;;108.38;47.75;;;;;;;7.70;95.34;103854.25;5084802;28;20039;-80
2021/12/17 03:59:51;;;;;;;104.10;46.85;;;;;;;7.62;95.30;103837.53;5077255;28;20536;-79
2021/12/17 04:02:16;;;;;;;104.15;49.08;;;;;;;7.69;95.37;103847.19;5092068;28;20137;-81
2021/12/17 04:04:42;;;;;;;102.45;46.80;;;;;;;7.80;95.41;103871.91;5092777;28;20028;-80
2021/12/17 04:07:08;;;;;;;106.78;46.75;;;;;;;7.75;95.19;103863.09;5092435;28;20024;-79
2021/12/17 04:09:33;;;;;;;111.85;49.10;;;;;;;7.60;95.32;103834.88;5074348;28;20425;-80
2021/12/17 04:12:01;;;;;;;113.40;46.90;;;;;;;7.76;95.59;103859.53;5091366;28;20240;-79
2021/12/17 04:14:34;;;;;;;114.43;46.30;;;;;;;7.79;95.69;103861.28;5092542;28;20063;-78
2021/12/17 04:17:04;;;;;;;115.03;47.20;;;;;;;7.78;95.39;103863.06;5092398;28;20036;-79
2021/12/17 04:19:29;;;;;;;120.80;48.72;;;;;;;7.59;95.39;103827.81;5073723;28;20443;-81
2021/12/17 04:21:54;;;;;;;115.70;47.90;;;;;;;7.77;95.56;103860.44;5090922;28;20070;-79
2021/12/17 04:24:20;;;;;;;112.10;46.67;;;;;;;7.62;95.82;103837.53;5091278;28;20386;-80
2021/12/17 04:26:46;;;;;;;116.60;46.53;;;;;;;7.70;95.69;103856.91;5080260;28;20041;-80
2021/12/17 04:29:11;;;;;;;125.78;49.85;;;;;;;7.60;96.03;103826.91;5072401;28;20032;-81
2021/12/17 04:31:37;;;;;;;118.15;49.50;;;;;;;7.77;95.98;103861.31;5082697;28;20024;-81
2021/12/17 04:34:02;;;;;;;122.20;49.88;;;;;;;7.79;95.94;103861.28;5092811;28;20118;-80
2021/12/17 04:36:31;;;;;;;122.43;49.67;;;;;;;7.61;95.86;103836.63;5092493;28;20150;-79
2021/12/17 04:38:58;;;;;;;123.78;49.85;;;;;;;7.79;95.82;103859.53;5092683;28;20028;-80
2021/12/17 04:41:40;;;;;;;129.63;50.03;;;;;;;7.60;95.78;103829.56;5091019;28;20086;-84
2021/12/17 04:57:29;;;;;;;125.85;50.58;;;;;;;7.67;95.89;103833.06;5094711;28;20077;-81
2021/12/17 05:00:00;;;;;;;136.00;53.13;;;;;;;7.74;96.15;103843.66;5096158;28;20024;-81
2021/12/17 05:02:27;;;;;;;124.97;49.55;;;;;;;7.70;96.22;103846.31;5095464;28;20096;-78
2021/12/17 05:04:53;;;;;;;132.32;51.97;;;;;;;7.67;96.31;103856.91;5077586;28;20024;-79
2021/12/17 05:07:19;;;;;;;126.32;51.63;;;;;;;7.64;96.48;103841.91;5095208;28;20077;-81
2021/12/17 05:23:32;;;;;;;137.25;52.63;;;;;;;7.71;96.47;103840.16;5051830;28;20495;-79
2021/12/17 05:25:59;;;;;;;129.07;53.10;;;;;;;7.42;96.41;103797.84;5033505;28;20033;-78
2021/12/17 05:28:25;;;;;;;143.82;54.83;;;;;;;7.77;96.40;103860.44;5033218;28;20049;-79
2021/12/17 05:30:50;;;;;;;130.80;51.55;;;;;;;7.65;96.51;103846.34;5041448;28;20041;-80
2021/12/17 05:33:18;;;;;;;143.02;52.45;;;;;;;7.79;96.50;103869.25;5053009;28;20530;-80
2021/12/17 05:35:44;;;;;;;137.18;52.75;;;;;;;7.80;96.57;103873.69;5035469;28;20031;-81
2021/12/17 05:38:10;;;;;;;129.77;51.33;;;;;;;7.79;96.59;103866.59;5052892;28;20107;-82
2021/12/17 05:40:37;;;;;;;131.98;51.58;;;;;;;7.66;96.56;103853.38;5047019;28;20033;-80
2021/12/17 05:43:05;;;;;;;129.00;51.03;;;;;;;7.58;96.70;103843.69;5017087;28;20124;-79
2021/12/17 05:46:09;;;;;;;135.30;53.17;;;;;;;7.69;96.40;103861.31;5033098;28;20029;-79
2021/12/17 05:48:22;;;;;;;126.78;49.92;;;;;;;7.80;96.68;103874.56;5031156;28;20037;-80
2021/12/17 05:50:52;;;;;;;128.93;50.00;;;;;;;7.79;96.46;103871.91;5039625;28;20443;-80
2021/12/17 05:53:18;;;;;;;126.45;50.20;;;;;;;7.67;96.54;103852.50;5052985;28;20033;-81
2021/12/17 05:55:43;;;;;;;131.13;51.05;;;;;;;7.70;96.67;103854.25;5035282;28;20396;-79
2021/12/17 05:58:11;;;;;;;127.53;49.65;;;;;;;7.78;96.78;103862.19;5033190;28;20029;-79
2021/12/17 06:00:39;;;;;;;130.07;49.95;;;;;;;7.67;96.84;103846.31;5084704;28;20044;-80
2021/12/17 06:03:05;;;;;;;135.02;51.95;;;;;;;7.78;96.59;103870.13;5076742;28;20016;-81
2021/12/17 06:05:30;;;;;;;130.15;49.83;;;;;;;7.81;97.05;103873.66;5091257;28;20846;-81
2021/12/17 06:07:56;;;;;;;122.82;49.17;;;;;;;7.78;96.90;103867.50;5093316;28;20040;-80
2021/12/17 06:10:22;;;;;;;122.80;48.63;;;;;;;7.66;96.92;103844.56;5083471;28;20025;-81
2021/12/17 06:12:47;;;;;;;121.13;47.35;;;;;;;7.82;96.71;103875.41;5099454;28;20399;-81
2021/12/17 06:15:15;;;;;;;113.72;44.50;;;;;;;7.65;96.60;103853.41;5089511;28;20055;-81
2021/12/17 06:17:41;;;;;;;111.07;43.53;;;;;;;7.83;96.48;103885.16;5093880;28;20028;-81
2021/12/17 06:20:08;;;;;;;111.88;44.50;;;;;;;7.76;96.56;103875.44;5094642;28;20028;-80
2021/12/17 06:22:34;;;;;;;105.35;40.42;;;;;;;7.79;96.68;103877.19;5093712;28;20127;-80
2021/12/17 06:24:59;;;;;;;105.78;41.97;;;;;;;7.69;96.72;103871.03;5094377;28;20056;-80
2021/12/17 06:27:25;;;;;;;100.28;38.53;;;;;;;7.80;96.66;103884.28;5093604;28;20020;-81
2021/12/17 06:29:52;;;;;;;97.97;38.35;;;;;;;7.80;96.85;103894.88;5074243;28;20036;-79
2021/12/17 06:32:18;;;;;;;97.10;37.15;;;;;;;7.81;96.83;103897.50;5074034;28;20029;-80
2021/12/17 06:34:44;;;;;;;94.40;35.97;;;;;;;7.77;96.49;103898.41;5092328;28;20135;-80
2021/12/17 06:37:10;;;;;;;95.85;35.85;;;;;;;7.68;96.65;103880.75;5094374;28;20472;-81
2021/12/17 06:39:35;;;;;;;94.88;35.03;;;;;;;7.67;96.65;103881.63;5093149;28;20467;-80
2021/12/17 06:42:02;;;;;;;91.93;34.67;;;;;;;7.74;96.82;103896.66;5094196;28;20379;-78
2021/12/17 06:44:28;;;;;;;90.60;35.17;;;;;;;7.79;96.69;103904.56;5092795;28;20043;-80
2021/12/17 07:00:15;;;;;;;81.65;30.15;;;;;;;7.74;96.44;103886.06;5094127;28;20070;-80
2021/12/17 07:10:54;;;;;;;66.70;27.35;;;;;;;7.77;96.39;103897.53;5073501;28;20048;-80
2021/12/17 07:40:07;;;;;;;72.03;25.50;;;;;;;7.64;96.23;103865.75;5059740;28;20032;-81
2021/12/17 07:42:33;;;;;;;63.63;25.20;;;;;;;7.71;96.14;103879.88;5070381;28;20032;-81
2021/12/17 07:44:59;;;;;;;66.38;25.17;;;;;;;7.75;95.99;103889.56;5068560;28;20095;-79
2021/12/17 07:47:25;;;;;;;66.63;25.33;;;;;;;7.66;96.28;103874.59;5064557;28;20025;-80
2021/12/17 07:49:51;;;;;;;63.38;24.90;;;;;;;7.73;96.36;103880.75;5050905;28;20033;-79
2021/12/17 07:52:17;;;;;;;65.93;25.20;;;;;;;7.70;96.40;103878.09;5051513;28;20426;-80
2021/12/17 07:54:42;;;;;;;64.65;23.15;;;;;;;7.56;96.35;103849.00;5065033;28;20028;-82
2021/12/17 07:57:08;;;;;;;59.70;24.88;;;;;;;7.77;96.27;103889.59;5069789;28;20033;-80
2021/12/17 07:59:33;;;;;;;62.35;24.65;;;;;;;7.59;96.54;103853.38;5055497;28;20024;-80
2021/12/17 08:01:58;;;;;;;64.10;24.55;;;;;;;7.66;96.66;103873.69;5070070;28;20059;-80
2021/12/17 08:04:25;;;;;;;71.20;26.98;;;;;;;7.80;96.64;103892.22;5053195;28;20364;-79
2021/12/17 08:06:50;;;;;;;69.57;25.77;;;;;;;7.64;96.24;103864.88;5048987;28;20040;-83
2021/12/17 08:09:16;;;;;;;67.45;26.58;;;;;;;7.75;96.63;103892.22;5062027;28;20044;-81
2021/12/17 08:11:42;;;;;;;67.82;25.83;;;;;;;7.70;96.76;103889.56;5076637;28;20020;-80
2021/12/17 08:14:12;;;;;;;70.53;26.58;;;;;;;7.63;96.93;103871.06;5092399;28;20402;-81
2021/12/17 08:16:46;;;;;;;;;;;;;;;7.85;96.22;103890.44;5083105;28;20082;-80
2021/12/17 08:24:52;;;;;;;63.63;25.27;;;;;;;7.82;96.75;103907.22;5092369;28;20845;-81
2021/12/17 08:32:38;;;;;;;64.13;25.67;;;;;;;7.66;96.54;103885.19;5096760;28;20390;-81
2021/12/17 08:35:04;;;;;;;69.82;26.45;;;;;;;7.70;96.70;103901.94;5096758;28;20095;-81
2021/12/17 08:37:31;;;;;;;71.47;28.52;;;;;;;7.77;97.08;103909.00;5078292;28;20124;-84
2021/12/17 08:39:56;;;;;;;60.63;28.17;;;;;;;7.70;96.97;103900.16;5096201;28;20020;-80
2021/12/17 08:42:21;;;;;;;61.25;30.48;;;;;;;7.68;97.11;103890.47;5096570;28;20031;-83
2021/12/17 08:44:47;;;;;;;65.63;32.25;;;;;;;7.63;96.70;103886.94;5096503;28;20024;-81
2021/12/17 08:47:12;;;;;;;60.13;31.20;;;;;;;7.69;96.92;103908.13;5095116;28;20477;-81
2021/12/17 08:49:40;;;;;;;61.05;30.40;;;;;;;7.79;97.10;103916.94;5096366;28;20108;-79
2021/12/17 08:52:07;;;;;;;59.55;29.88;;;;;;;7.78;96.96;103918.72;5095924;28;20114;-79
2021/12/17 08:54:32;;;;;;;56.67;29.90;;;;;;;7.71;97.30;103901.06;5096154;28;20454;-81
2021/12/17 08:56:57;;;;;;;56.72;28.90;;;;;;;7.74;96.82;103916.97;5096184;28;20051;-81
2021/12/17 08:59:23;;;;;;;55.05;30.60;;;;;;;7.72;96.86;103902.81;5096132;28;20492;-82
2021/12/17 09:01:48;;;;;;;58.33;29.25;;;;;;;7.79;97.13;103912.50;5095749;28;20102;-82
2021/12/17 09:04:14;;;;;;;55.70;29.65;;;;;;;7.67;96.92;103894.88;5096118;28;20047;-80
2021/12/17 09:06:40;;;;;;;52.90;29.67;;;;;;;7.77;97.11;103903.72;5096281;28;20050;-81
2021/12/17 09:09:05;;;;;;;54.20;28.73;;;;;;;7.81;96.98;103912.53;5095833;28;20026;-81
2021/12/17 09:11:31;;;;;;;53.97;29.83;;;;;;;7.72;97.27;103898.41;5095741;28;20020;-80
2021/12/17 09:13:59;;;;;;;56.95;29.05;;;;;;;7.78;97.35;103913.41;5095725;28;20040;-81
2021/12/17 09:16:25;;;;;;;60.42;30.30;;;;;;;7.68;97.27;103885.19;5095892;28;20462;-80
2021/12/17 09:18:53;;;;;;;57.22;29.17;;;;;;;7.87;97.56;103926.63;5095527;28;20027;-83
2021/12/17 09:21:18;;;;;;;57.38;29.30;;;;;;;7.87;96.68;103928.41;5095793;28;20052;-82
2021/12/17 09:23:44;;;;;;;59.05;29.88;;;;;;;7.76;97.13;103915.16;5094395;28;20070;-81
2021/12/17 09:26:11;;;;;;;54.00;29.88;;;;;;;7.86;97.21;103942.56;5095793;28;20017;-84
2021/12/17 09:28:37;;;;;;;54.92;27.80;;;;;;;7.92;97.29;103955.78;5077211;28;20067;-79
2021/12/17 09:31:05;;;;;;;56.28;29.65;;;;;;;7.68;96.93;103922.28;5095274;28;20474;-81
2021/12/17 09:33:30;;;;;;;53.28;29.17;;;;;;;7.87;96.99;103950.50;5095569;28;20028;-81
2021/12/17 09:35:56;;;;;;;58.78;30.60;;;;;;;7.73;96.86;103933.72;5095461;28;20032;-85
2021/12/17 09:38:21;;;;;;;57.58;29.60;;;;;;;7.77;96.78;103945.22;5093783;28;20039;-83
2021/12/17 09:40:46;;;;;;;57.38;29.55;;;;;;;7.85;97.26;103960.22;5094075;28;20016;-80
2021/12/17 09:43:14;;;;;;;61.13;31.08;;;;;;;7.87;97.46;103963.72;5092746;28;20032;-78
2021/12/17 09:45:40;;;;;;;61.90;30.63;;;;;;;7.76;97.59;103948.75;5095450;28;20027;-79
2021/12/17 09:48:05;;;;;;;61.10;31.10;;;;;;;7.79;97.26;103952.25;5095365;28;20028;-80
2021/12/17 09:50:30;;;;;;;59.85;30.70;;;;;;;7.77;97.30;103945.22;5095083;28;20107;-77
2021/12/17 09:52:56;;;;;;;54.75;30.23;;;;;;;7.90;97.23;103970.81;5095153;28;20070;-79
2021/12/17 09:55:22;;;;;;;58.55;30.77;;;;;;;7.94;97.45;103975.19;5095163;28;20069;-80
2021/12/17 09:57:48;;;;;;;59.83;31.45;;;;;;;7.88;97.43;103973.47;5095009;28;20020;-80
2021/12/17 10:00:20;;;;;;;60.55;31.17;;;;;;;7.94;97.18;103981.41;5083585;28;20024;-80
2021/12/17 10:02:46;;;;;;;61.53;29.05;;;;;;;7.93;97.27;103973.44;5094912;28;20440;-79
2021/12/17 10:05:22;;;;;;;60.83;30.75;;;;;;;7.84;97.39;103963.75;5095059;28;20051;-79
2021/12/17 10:07:54;;;;;;;56.22;29.20;;;;;;;7.87;97.35;103965.50;5094925;28;20105;-78
2021/12/17 10:10:19;;;;;;;58.60;30.38;;;;;;;7.98;97.36;103974.34;5094480;28;20042;-81
2021/12/17 10:12:46;;;;;;;59.40;30.75;;;;;;;7.83;97.27;103958.47;5076230;28;20020;-79
2021/12/17 10:15:17;;;;;;;62.15;29.83;;;;;;;7.81;97.17;103953.16;5094308;28;20093;-81
2021/12/17 10:17:53;;;;;;;60.75;30.10;;;;;;;8.00;97.60;103984.91;5094762;28;20427;-79
2021/12/17 10:20:19;;;;;;;60.70;30.52;;;;;;;8.01;97.56;103984.94;5094692;28;20021;-79
2021/12/17 10:22:46;;;;;;;63.10;31.58;;;;;;;7.97;97.64;103981.41;5094360;28;20382;-79
2021/12/17 10:25:12;;;;;;;54.05;28.23;;;;;;;7.95;97.80;103974.34;5094413;28;20493;-80
2021/12/17 10:27:42;;;;;;;55.22;29.52;;;;;;;7.98;98.11;103976.97;5094522;28;20032;-80
2021/12/17 10:30:13;;;;;;;57.63;29.83;;;;;;;7.90;97.53;103961.06;5094446;28;20078;-79
2021/12/17 10:32:42;;;;;;;57.88;28.67;;;;;;;7.97;97.75;103970.81;5093970;28;20032;-79
2021/12/17 10:35:09;;;;;;;53.88;28.38;;;;;;;8.10;97.63;103991.97;5094543;28;20035;-79
2021/12/17 10:37:45;;;;;;;54.33;27.33;;;;;;;8.09;97.36;103987.53;5094358;28;20442;-79
2021/12/17 10:40:36;;;;;;;56.35;28.30;;;;;;;8.09;97.47;103983.16;5094103;28;20055;-78
2021/12/17 10:43:15;;;;;;;56.50;28.48;;;;;;;8.08;97.82;103978.72;5075510;28;20028;-79
2021/12/17 10:45:45;;;;;;;50.60;27.48;;;;;;;8.09;97.52;103979.59;5094193;28;20024;-79
2021/12/17 10:48:38;;;;;;;53.67;27.25;;;;;;;8.08;97.48;103975.19;5094022;28;20024;-78
2021/12/17 10:51:14;;;;;;;52.88;25.80;;;;;;;8.12;97.46;103974.31;5093711;28;20085;-79
2021/12/17 10:53:54;;;;;;;52.13;24.92;;;;;;;8.11;97.59;103977.81;5093478;28;20178;-80
2021/12/17 10:56:25;;;;;;;52.60;23.38;;;;;;;7.90;97.33;103950.47;5075707;28;20035;-80
2021/12/17 10:59:02;;;;;;;49.78;23.42;;;;;;;8.15;97.71;103984.91;5092103;28;20028;-79
2021/12/17 11:01:58;;;;;;;45.35;21.17;;;;;;;8.14;97.29;103981.34;5093938;28;20076;-80
2021/12/17 11:04:31;;;;;;;47.47;21.23;;;;;;;8.20;97.49;103985.75;5092833;28;20475;-78
2021/12/17 11:07:04;;;;;;;42.08;20.27;;;;;;;8.21;97.21;103990.19;5093858;28;20032;-81
2021/12/17 11:09:44;;;;;;;40.30;19.83;;;;;;;8.24;97.32;103981.34;5093861;28;20028;-80
2021/12/17 11:12:12;;;;;;;44.45;19.48;;;;;;;8.21;97.12;103987.53;5093822;28;20024;-81
2021/12/17 11:14:37;;;;;;;42.63;19.02;;;;;;;8.19;96.86;103978.69;5092187;28;20487;-79
2021/12/17 11:17:03;;;;;;;39.95;18.83;;;;;;;7.90;97.11;103929.28;5093875;28;20031;-79
2021/12/17 11:19:29;;;;;;;41.03;18.40;;;;;;;8.17;97.06;103973.38;5093893;28;20023;-80
2021/12/17 11:21:55;;;;;;;42.45;18.98;;;;;;;8.04;97.12;103950.47;5093643;28;20389;-79
2021/12/17 11:24:22;;;;;;;40.55;18.45;;;;;;;8.04;97.39;103947.81;5092409;28;20042;-80
2021/12/17 11:26:48;;;;;;;45.53;19.15;;;;;;;8.12;97.03;103958.41;5090626;28;20408;-78
2021/12/17 11:29:16;;;;;;;41.15;19.33;;;;;;;8.08;97.10;103949.56;5092118;28;20026;-80
2021/12/17 11:31:42;;;;;;;44.95;19.92;;;;;;;8.20;96.87;103954.81;5092690;28;20086;-79
2021/12/17 11:34:09;;;;;;;42.72;20.20;;;;;;;8.20;96.99;103954.81;5093458;28;20024;-78
2021/12/17 11:36:35;;;;;;;41.85;18.75;;;;;;;8.16;96.75;103944.25;5074524;28;20118;-80
2021/12/17 11:39:33;;;;;;;49.10;19.55;;;;;;;8.30;96.90;103957.47;5091778;28;20082;-79
2021/12/17 11:42:36;;;;;;;42.78;19.40;;;;;;;8.27;96.90;103955.72;5077215;28;20123;-83
2021/12/17 11:47:48;;;;;;;40.70;19.50;;;;;;;8.26;96.72;103940.66;5093358;28;20536;-79
2021/12/17 11:50:18;;;;;;;43.67;20.75;;;;;;;8.27;96.49;103946.88;5093163;28;20016;-79
2021/12/17 11:52:46;;;;;;;44.35;19.75;;;;;;;8.27;96.88;103936.25;5093097;28;20021;-78
2021/12/17 11:55:20;;;;;;;41.80;19.42;;;;;;;8.26;96.53;103935.34;5093217;28;20024;-80
2021/12/17 11:57:50;;;;;;;42.88;19.85;;;;;;;8.27;96.54;103938.91;5091602;28;20035;-80
2021/12/17 12:00:17;;;;;;;41.78;19.23;;;;;;;8.27;96.73;103926.53;5092314;28;20046;-80
2021/12/17 12:02:50;;;;;;;39.70;17.73;;;;;;;8.30;96.65;103936.25;5092227;28;20051;-80
2021/12/17 12:05:38;;;;;;;37.50;18.60;;;;;;;8.31;96.42;103928.28;5089877;28;20063;-79
2021/12/17 12:11:16;;;;;;;36.08;18.33;;;;;;;8.31;96.55;103920.31;5085270;28;20036;-80
2021/12/17 12:13:50;;;;;;;36.20;18.60;;;;;;;8.35;96.47;103937.09;5084660;28;20017;-79
2021/12/17 12:16:19;;;;;;;34.50;18.10;;;;;;;8.36;96.27;103950.38;5084520;28;20446;-79
2021/12/17 12:18:53;;;;;;;36.05;18.77;;;;;;;8.32;95.97;103939.75;5085463;28;20032;-83
2021/12/17 12:21:20;;;;;;;31.08;16.85;;;;;;;8.35;95.76;103953.91;5090864;28;20423;-79
2021/12/17 12:23:54;;;;;;;31.05;16.77;;;;;;;8.28;95.93;103932.72;5090878;28;20356;-82
2021/12/17 12:26:23;;;;;;;30.00;17.13;;;;;;;8.35;95.88;103945.06;5072186;28;20109;-82
2021/12/17 12:28:53;;;;;;;32.47;16.45;;;;;;;8.32;95.71;103956.53;5099609;28;20378;-81
2021/12/17 12:31:24;;;;;;;30.33;17.02;;;;;;;8.32;95.74;103947.72;5088351;28;20034;-81
2021/12/17 12:34:08;;;;;;;32.83;18.27;;;;;;;8.31;96.11;103944.19;5091805;28;20387;-79
2021/12/17 12:36:58;;;;;;;34.35;18.17;;;;;;;8.31;96.08;103938.88;5091061;28;20028;-79
2021/12/17 12:39:38;;;;;;;;;;;;;;;8.36;96.09;103942.41;5087469;28;20056;-80
2021/12/17 12:42:09;;;;;;;30.70;17.30;;;;;;;8.34;96.24;103938.00;5083735;28;19920;-81
2021/12/17 12:44:49;;;;;;;28.42;16.73;;;;;;;8.33;95.97;103937.13;5083307;28;20475;-79
2021/12/17 12:47:20;;;;;;;29.75;16.88;;;;;;;8.33;96.29;103929.16;5060853;28;20056;-81
2021/12/17 12:50:02;;;;;;;27.77;15.82;;;;;;;8.19;96.30;103905.34;5089173;28;20031;-82
2021/12/17 12:52:30;;;;;;;32.20;18.13;;;;;;;8.28;95.82;103930.94;5102794;28;20042;-80
2021/12/17 12:54:57;;;;;;;30.13;17.02;;;;;;;8.27;96.04;103926.53;5087913;28;20032;-81
2021/12/17 12:57:28;;;;;;;27.08;16.65;;;;;;;8.16;96.03;103907.13;5087497;28;20099;-79
2021/12/17 12:59:55;;;;;;;28.98;17.25;;;;;;;8.27;96.08;103917.72;5072414;28;20020;-80
2021/12/17 13:02:21;;;;;;;27.00;16.67;;;;;;;8.27;96.05;103915.94;5091597;28;20486;-81
2021/12/17 13:04:47;;;;;;;22.88;14.48;;;;;;;8.22;96.01;103908.88;5082189;28;20459;-79
2021/12/17 13:07:15;;;;;;;19.95;12.43;;;;;;;8.15;95.29;103908.03;5079557;28;20039;-82
2021/12/17 13:09:42;;;;;;;17.48;11.75;;;;;;;8.26;95.17;103932.72;5080363;28;20013;-82
2021/12/17 13:12:08;;;;;;;17.60;12.20;;;;;;;8.26;94.99;103930.06;5082439;28;20024;-83
2021/12/17 13:14:42;;;;;;;17.15;11.55;;;;;;;8.19;95.06;103921.25;5090995;28;20034;-82
2021/12/17 13:17:39;;;;;;;19.92;12.48;;;;;;;8.16;94.69;103915.97;5081520;28;20017;-79
2021/12/17 13:20:40;;;;;;;22.35;13.75;;;;;;;8.06;94.99;103906.28;5089040;28;20114;-82
2021/12/17 13:23:15;;;;;;;22.50;13.82;;;;;;;8.23;94.56;103929.19;5084012;28;20040;-83
2021/12/17 13:25:40;;;;;;;24.00;14.32;;;;;;;8.00;94.64;103897.44;5072398;28;20383;-80
2021/12/17 13:28:06;;;;;;;22.70;13.77;;;;;;;8.15;95.06;103930.13;5086300;28;20033;-81
2021/12/17 13:30:31;;;;;;;24.65;15.30;;;;;;;8.01;94.19;103915.13;5088088;28;20020;-81
2021/12/17 13:32:57;;;;;;;24.80;16.08;;;;;;;8.16;94.17;103923.03;5090189;28;20067;-80
2021/12/17 13:35:24;;;;;;;26.27;16.90;;;;;;;8.10;94.45;103909.81;5083359;28;20040;-81
2021/12/17 13:37:57;;;;;;;24.75;15.48;;;;;;;8.03;93.75;103908.03;5092591;28;20028;-80
2021/12/17 13:40:25;;;;;;;26.10;14.50;;;;;;;8.02;93.67;103904.50;5092427;28;20024;-80
2021/12/17 13:42:51;;;;;;;20.33;13.63;;;;;;;8.07;93.24;103928.38;5093405;28;20024;-80
2021/12/17 13:45:20;;;;;;;23.30;14.13;;;;;;;8.02;93.61;103906.28;5093158;28;20075;-83
2021/12/17 13:47:48;;;;;;;21.58;13.80;;;;;;;8.15;93.91;103922.16;5092774;28;20026;-83
2021/12/17 13:50:24;;;;;;;18.83;12.18;;;;;;;8.15;93.50;103921.28;5076578;28;20020;-79
2021/12/17 13:53:00;;;;;;;17.88;11.15;;;;;;;8.15;93.21;103919.50;5094048;28;20059;-79
2021/12/17 13:55:38;;;;;;;13.02;9.57;;;;;;;8.13;93.37;103920.41;5086040;28;20509;-79
2021/12/17 13:58:12;;;;;;;14.27;9.15;;;;;;;8.12;93.07;103927.47;5088889;28;20023;-78
2021/12/17 14:00:40;;;;;;;17.33;10.32;;;;;;;8.10;93.23;103926.59;5087608;28;20451;-80
2021/12/17 14:03:11;;;;;;;13.00;9.40;;;;;;;8.11;93.25;103933.63;5088504;28;20018;-79
2021/12/17 14:06:01;;;;;;;10.70;8.45;;;;;;;8.05;92.93;103933.66;5084722;28;20043;-79
2021/12/17 14:08:27;;;;;;;8.80;7.88;;;;;;;7.92;93.13;103914.28;5089657;28;20336;-80
2021/12/17 14:10:56;;;;;;;10.73;8.18;;;;;;;8.01;93.11;103933.69;5085371;28;20097;-81
2021/12/17 14:13:24;;;;;;;11.35;7.97;;;;;;;8.02;93.34;103936.31;5099899;28;20020;-83
2021/12/17 14:15:52;;;;;;;8.43;7.07;;;;;;;7.84;93.31;103901.91;5086172;28;20065;-81
2021/12/17 14:18:27;;;;;;;9.48;7.32;;;;;;;8.01;93.00;103936.34;5092119;28;20028;-81
2021/12/17 14:20:55;;;;;;;9.15;6.95;;;;;;;7.82;93.29;103903.69;5089965;28;20024;-80
2021/12/17 14:23:29;;;;;;;7.53;6.72;;;;;;;8.01;93.11;103931.03;5100990;28;20420;-80
2021/12/17 14:25:58;;;;;;;9.35;6.97;;;;;;;7.93;93.01;103918.66;5095803;28;20025;-78
2021/12/17 14:28:26;;;;;;;7.90;6.85;;;;;;;7.77;92.42;103892.25;5094109;28;20024;-80
2021/12/17 14:31:15;;;;;;;8.27;7.05;;;;;;;8.05;92.89;103943.38;5091609;28;20043;-81
2021/12/17 14:33:48;;;;;;;10.32;7.03;;;;;;;7.86;92.44;103903.69;5084975;28;20472;-79
2021/12/17 14:36:28;;;;;;;8.57;6.18;;;;;;;7.97;92.21;103936.34;5079800;28;20084;-82